LKPR/PRG METAR and TAF weather

Enter ICAO airport designator
Station Type Date Time Source
LKPR METAR 2019/10/21 05:00 UTC NOAA

LKPR 210500Z VRB01KT 0300 R24/0375N R30/0350N FG VV001 08/08 Q1016 NOSIG


Station Type Date Time Source
LKPR Decoded METAR 2019/10/21 05:00 UTC NOAA

Praha / Ruzyne, Czech Republic (LKPR) 50-06N 014-15E 365M
Oct 21, 2019 - 01:00 AM EDT / 2019.10.21 0500 UTC
Wind: Variable at 1 MPH (1 KT):0
Visibility: less than 1 mile:0
Sky conditions: obscured
Weather: fog
Temperature: 46 F (8 C)
Dew Point: 46 F (8 C)
Relative Humidity: 100%
Pressure (altimeter): 30.00 in. Hg (1016 hPa)
ob: LKPR 210500Z VRB01KT 0300 R24/0375N R30/0350N FG VV001 08/08 Q1016 NOSIG
cycle: 5

Station Type Date Time Source
LKPR TAF 2019/10/21 03:08 UTC NOAA

TAF
AMD LKPR 210300Z 2103/2206 24002KT 0800 FG BKN002
BECMG 2103/2104 0400 FG OVC001
TEMPO 2104/2108 0500 FG
BECMG 2108/2111 1500 BR BKN004
BECMG 2111/2113 5000 BR SCT009
BECMG 2119/2121 0900 FG OVC004
BECMG 2200/2202 0200 FG OVC001

Example: see airport list